Monday, November 20, 2017, 4:09 AM GMT
Back to Local

CZBF, Bathurst Airport Aviation Weather Reporting Station

Location: , , Canada Lat: 47.633
Local Time: 4:09 AM GMT ( 4:09 GMT) Lon: -65.75
Time Zone: GMT Elev: 193 ft

Show me the last for .
Show Coded

Time T Td Feel RH Dir Speed Gust Alt SLP Vis Weather Sky Remarks
2017-11-20 03:00 37 32 26 80 270° 14 26 29.03 29.04 15 OVC050 None
2017-11-20 02:00 41 36 30 80 280° 17 29 29.00 29.01 15 OVC050 None
2017-11-20 01:00 43 41 36 93 260° 13 - 28.96 28.97 6 -RA BR OVC030 None
2017-11-20 00:00 41 41 35 100 230° 9 - 28.93 28.94 6 -RA BR OVC040 Pressure rising rapidly
2017-11-19 23:43 41 41 35 100 240° 9 - 28.91 28.92 6 -RA BR OVC040 None
2017-11-19 23:00 43 43 33 100 240° 13 24 28.91 28.92 0 -RA FG VV003 None
2017-11-19 22:00 37 37 35 100 240° 3 - 28.92 28.93 0 -RA FG VV003 None
2017-11-19 21:34 36 36 - 100 270° 2 - 28.94 28.95 0 FG VV003 None
2017-11-19 21:00 37 37 - 100 Variable 2 - 28.97 28.98 0 -RA FG VV002 None
2017-11-19 20:00 39 39 37 100 340° 3 - 29.02 29.03 0 -RA FG VV002 None
2017-11-19 19:48 39 39 35 100 360° 6 - 29.02 29.03 0 -RA FG VV002 Pressure falling rapidly
2017-11-19 19:00 39 39 35 100 10° 6 - 29.08 29.10 1 -RA BR OVC004 None
2017-11-19 18:49 39 39 35 100 10° 6 - 29.09 29.10 1 -RA BR OVC004 None
2017-11-19 18:00 37 37 33 100 30° 6 - 29.14 29.15 1 -RA BR OVC005 Pressure falling rapidly
2017-11-19 17:00 36 36 31 100 20° 6 - 29.22 29.24 1 -RA BR OVC004 Pressure falling rapidly
2017-11-19 16:00 36 34 31 93 10° 6 - 29.29 29.31 1 -RA BR OVC004 Pressure falling rapidly
2017-11-19 15:18 34 34 29 100 20° 6 - 29.33 29.35 1 -RA BR OVC005 Pressure falling rapidly
2017-11-19 15:00 32 32 27 100 10° 5 - 29.37 29.38 1 RA BR OVC006 None
2017-11-19 14:54 32 32 29 100 360° 3 - 29.37 29.39 1 RA BR BKN006 None
2017-11-19 14:00 32 32 27 100 40° 5 - 29.42 29.43 1 -FZRA BR OVC007 Pressure falling rapidly
2017-11-19 13:28 30 30 24 100 30° 6 - 29.45 29.46 1 -FZRA BR BKN007 None
2017-11-19 13:00 28 28 23 100 20° 5 - 29.48 29.49 3 -FZRA BR OVC012 Pressure falling rapidly
2017-11-19 12:00 28 27 25 92 10° 3 - 29.51 29.53 8 -FZRA OVC066 None
2017-11-19 11:28 27 25 23 92 10° 3 - 29.53 29.55 8 -FZRA FEW030 OVC066 None
2017-11-19 11:00 27 25 23 92 60° 3 - 29.55 29.57 10 -FZRA -PL OVC015 Pressure falling rapidly
2017-11-19 10:37 27 25 23 92 40° 3 - 29.56 29.57 10 -FZRA OVC030 Pressure falling rapidly
2017-11-19 10:00 27 23 23 86 120° 3 - 29.59 29.61 15 OVC050 None
2017-11-19 09:00 27 23 - 86 90° 2 - 29.62 29.63 15 OVC050 None
2017-11-19 08:00 25 23 20 92 50° 3 - 29.64 29.65 15 OVC050 Pressure falling rapidly
2017-11-19 07:00 25 23 - 92 - Calm - 29.66 29.68 15 OVC050 None
2017-11-19 06:00 23 23 - 100 - Calm - 29.68 29.70 15 OVC050 None
2017-11-19 05:00 23 21 - 92 50° 2 - 29.70 29.71 15 OVC040 None

Support USWX by starting your Amazon purchase here.